sensor_id;sensor_type;location;lat;lon;timestamp;pressure;altitude;pressure_sealevel;temperature;humidity
52927;BME280;40783;49.710;8.842;2023-02-28T00:01:14;100060.91;;;-1.75;86.65
52927;BME280;40783;49.710;8.842;2023-02-28T00:03:40;100053.97;;;-1.77;87.55
52927;BME280;40783;49.710;8.842;2023-02-28T00:06:09;100056.00;;;-1.84;87.81
52927;BME280;40783;49.710;8.842;2023-02-28T00:08:36;100062.94;;;-1.83;87.90
52927;BME280;40783;49.710;8.842;2023-02-28T00:11:13;100061.00;;;-1.78;87.89
52927;BME280;40783;49.710;8.842;2023-02-28T00:13:44;100060.38;;;-1.85;88.64
52927;BME280;40783;49.710;8.842;2023-02-28T00:16:19;100070.81;;;-1.83;88.33
52927;BME280;40783;49.710;8.842;2023-02-28T00:18:45;100069.81;;;-1.81;88.67
52927;BME280;40783;49.710;8.842;2023-02-28T00:21:15;100063.69;;;-1.80;89.30
52927;BME280;40783;49.710;8.842;2023-02-28T00:23:40;100060.31;;;-1.83;89.15
52927;BME280;40783;49.710;8.842;2023-02-28T00:26:05;100061.13;;;-1.81;89.16
52927;BME280;40783;49.710;8.842;2023-02-28T00:28:31;100067.63;;;-1.91;89.94
52927;BME280;40783;49.710;8.842;2023-02-28T00:30:57;100066.91;;;-1.97;90.20
52927;BME280;40783;49.710;8.842;2023-02-28T00:33:22;100059.97;;;-1.98;90.29
52927;BME280;40783;49.710;8.842;2023-02-28T00:35:48;100057.53;;;-2.02;91.11
52927;BME280;40783;49.710;8.842;2023-02-28T00:38:16;100063.59;;;-2.02;91.61
52927;BME280;40783;49.710;8.842;2023-02-28T00:40:41;100060.28;;;-2.07;92.06
52927;BME280;40783;49.710;8.842;2023-02-28T00:43:10;100059.34;;;-2.04;92.10
52927;BME280;40783;49.710;8.842;2023-02-28T00:45:37;100062.13;;;-2.09;92.29
52927;BME280;40783;49.710;8.842;2023-02-28T00:48:03;100064.97;;;-2.15;93.17
52927;BME280;40783;49.710;8.842;2023-02-28T00:50:29;100062.38;;;-2.15;92.96
52927;BME280;40783;49.710;8.842;2023-02-28T00:52:54;100051.88;;;-2.15;93.35
52927;BME280;40783;49.710;8.842;2023-02-28T00:55:22;100054.53;;;-2.17;93.78
52927;BME280;40783;49.710;8.842;2023-02-28T00:57:47;100061.38;;;-2.13;93.50
52927;BME280;40783;49.710;8.842;2023-02-28T01:00:13;100062.38;;;-2.15;93.87
52927;BME280;40783;49.710;8.842;2023-02-28T01:02:38;100062.38;;;-2.15;93.93
52927;BME280;40783;49.710;8.842;2023-02-28T01:05:04;100062.47;;;-2.18;94.04
52927;BME280;40783;49.710;8.842;2023-02-28T01:07:34;100058.94;;;-2.17;94.62
52927;BME280;40783;49.710;8.842;2023-02-28T01:09:59;100063.38;;;-2.19;94.78
52927;BME280;40783;49.710;8.842;2023-02-28T01:12:24;100058.94;;;-2.17;94.79
52927;BME280;40783;49.710;8.842;2023-02-28T01:14:50;100059.47;;;-2.33;95.28
52927;BME280;40783;49.710;8.842;2023-02-28T01:17:15;100050.59;;;-2.29;95.71
52927;BME280;40783;49.710;8.842;2023-02-28T01:19:40;100054.22;;;-2.33;95.23
52927;BME280;40783;49.710;8.842;2023-02-28T01:22:08;100051.53;;;-2.31;95.85
52927;BME280;40783;49.710;8.842;2023-02-28T01:24:37;100053.38;;;-2.33;96.61
52927;BME280;40783;49.710;8.842;2023-02-28T01:27:02;100053.22;;;-2.29;96.23
52927;BME280;40783;49.710;8.842;2023-02-28T01:29:29;100052.56;;;-2.35;96.38
52927;BME280;40783;49.710;8.842;2023-02-28T01:31:55;100047.50;;;-2.40;96.96
52927;BME280;40783;49.710;8.842;2023-02-28T01:34:26;100045.88;;;-2.44;97.32
52927;BME280;40783;49.710;8.842;2023-02-28T01:36:51;100042.38;;;-2.43;97.27
52927;BME280;40783;49.710;8.842;2023-02-28T01:39:19;100039.81;;;-2.45;97.75
52927;BME280;40783;49.710;8.842;2023-02-28T01:41:44;100047.59;;;-2.43;97.86
52927;BME280;40783;49.710;8.842;2023-02-28T01:47:13;100038.31;;;-2.52;98.00
52927;BME280;40783;49.710;8.842;2023-02-28T01:49:39;100045.38;;;-2.54;98.75
52927;BME280;40783;49.710;8.842;2023-02-28T01:52:04;100041.75;;;-2.51;98.58
52927;BME280;40783;49.710;8.842;2023-02-28T01:54:31;100049.63;;;-2.51;98.64
52927;BME280;40783;49.710;8.842;2023-02-28T01:57:03;100040.75;;;-2.47;98.63
52927;BME280;40783;49.710;8.842;2023-02-28T01:59:37;100036.38;;;-2.47;98.48
52927;BME280;40783;49.710;8.842;2023-02-28T02:02:07;100034.59;;;-2.46;98.67
52927;BME280;40783;49.710;8.842;2023-02-28T02:04:38;100028.34;;;-2.42;98.36
52927;BME280;40783;49.710;8.842;2023-02-28T02:07:05;100030.28;;;-2.47;98.64
52927;BME280;40783;49.710;8.842;2023-02-28T02:09:30;100028.66;;;-2.51;99.10
52927;BME280;40783;49.710;8.842;2023-02-28T02:11:56;100023.44;;;-2.51;99.06
52927;BME280;40783;49.710;8.842;2023-02-28T02:17:39;100025.16;;;-2.50;99.37
52927;BME280;40783;49.710;8.842;2023-02-28T02:20:27;100023.31;;;-2.48;99.08
52927;BME280;40783;49.710;8.842;2023-02-28T02:25:50;100016.59;;;-2.56;99.74
52927;BME280;40783;49.710;8.842;2023-02-28T02:28:54;100012.97;;;-2.51;99.44
52927;BME280;40783;49.710;8.842;2023-02-28T02:37:44;100014.97;;;-2.60;99.89
52927;BME280;40783;49.710;8.842;2023-02-28T02:40:16;100017.72;;;-2.63;100.00
52927;BME280;40783;49.710;8.842;2023-02-28T02:42:47;100025.56;;;-2.63;100.00
52927;BME280;40783;49.710;8.842;2023-02-28T02:47:42;100016.13;;;-2.67;100.00
52927;BME280;40783;49.710;8.842;2023-02-28T02:50:13;100024.00;;;-2.67;100.00
52927;BME280;40783;49.710;8.842;2023-02-28T02:52:45;100017.13;;;-2.71;100.00
52927;BME280;40783;49.710;8.842;2023-02-28T02:55:16;100011.00;;;-2.70;100.00
52927;BME280;40783;49.710;8.842;2023-02-28T02:57:47;100020.78;;;-2.75;100.00
52927;BME280;40783;49.710;8.842;2023-02-28T03:00:20;100018.78;;;-2.69;100.00
52927;BME280;40783;49.710;8.842;2023-02-28T03:02:49;100024.28;;;-2.76;100.00
52927;BME280;40783;49.710;8.842;2023-02-28T03:05:26;100027.63;;;-2.71;100.00
52927;BME280;40783;49.710;8.842;2023-02-28T03:07:54;100031.25;;;-2.75;100.00
52927;BME280;40783;49.710;8.842;2023-02-28T03:10:40;100028.53;;;-2.72;100.00
52927;BME280;40783;49.710;8.842;2023-02-28T03:18:29;100010.09;;;-2.69;100.00
52927;BME280;40783;49.710;8.842;2023-02-28T03:23:53;100011.81;;;-2.68;100.00
52927;BME280;40783;49.710;8.842;2023-02-28T03:26:26;100023.13;;;-2.67;100.00
52927;BME280;40783;49.710;8.842;2023-02-28T03:31:53;100022.09;;;-2.63;100.00
52927;BME280;40783;49.710;8.842;2023-02-28T03:36:55;100012.81;;;-2.72;100.00
52927;BME280;40783;49.710;8.842;2023-02-28T03:39:28;100027.50;;;-2.68;100.00
52927;BME280;40783;49.710;8.842;2023-02-28T03:42:00;100016.38;;;-2.75;100.00
52927;BME280;40783;49.710;8.842;2023-02-28T03:44:33;100013.63;;;-2.70;100.00
52927;BME280;40783;49.710;8.842;2023-02-28T03:47:09;100013.94;;;-2.79;100.00
52927;BME280;40783;49.710;8.842;2023-02-28T03:53:42;100019.06;;;-2.76;100.00
52927;BME280;40783;49.710;8.842;2023-02-28T03:55:56;100024.41;;;-2.79;100.00
52927;BME280;40783;49.710;8.842;2023-02-28T03:58:59;100027.22;;;-2.86;100.00
52927;BME280;40783;49.710;8.842;2023-02-28T04:01:34;100020.19;;;-2.85;100.00
52927;BME280;40783;49.710;8.842;2023-02-28T04:04:01;100026.50;;;-2.91;100.00
52927;BME280;40783;49.710;8.842;2023-02-28T04:06:30;100016.13;;;-2.94;100.00
52927;BME280;40783;49.710;8.842;2023-02-28T04:08:56;100018.25;;;-3.05;100.00
52927;BME280;40783;49.710;8.842;2023-02-28T04:11:39;100014.44;;;-2.95;100.00
52927;BME280;40783;49.710;8.842;2023-02-28T04:14:08;100023.28;;;-2.99;100.00
52927;BME280;40783;49.710;8.842;2023-02-28T04:16:38;100023.91;;;-2.91;100.00
52927;BME280;40783;49.710;8.842;2023-02-28T04:19:05;100025.09;;;-3.01;100.00
52927;BME280;40783;49.710;8.842;2023-02-28T04:21:39;100021.38;;;-2.94;100.00
52927;BME280;40783;49.710;8.842;2023-02-28T04:24:09;100025.09;;;-3.01;100.00
52927;BME280;40783;49.710;8.842;2023-02-28T04:26:40;100024.44;;;-3.08;100.00
52927;BME280;40783;49.710;8.842;2023-02-28T04:29:08;100025.28;;;-3.07;100.00
52927;BME280;40783;49.710;8.842;2023-02-28T04:31:34;100017.34;;;-3.04;100.00
52927;BME280;40783;49.710;8.842;2023-02-28T04:34:01;100027.06;;;-3.08;100.00
52927;BME280;40783;49.710;8.842;2023-02-28T04:36:27;100020.25;;;-3.14;100.00
52927;BME280;40783;49.710;8.842;2023-02-28T04:38:53;100022.06;;;-3.16;100.00
52927;BME280;40783;49.710;8.842;2023-02-28T04:41:18;100022.69;;;-3.07;100.00
52927;BME280;40783;49.710;8.842;2023-02-28T04:43:46;100011.50;;;-3.13;100.00
52927;BME280;40783;49.710;8.842;2023-02-28T04:46:11;100022.69;;;-3.07;100.00
52927;BME280;40783;49.710;8.842;2023-02-28T04:48:38;100020.16;;;-3.10;100.00
52927;BME280;40783;49.710;8.842;2023-02-28T04:51:08;100020.31;;;-3.15;100.00
52927;BME280;40783;49.710;8.842;2023-02-28T04:53:34;100016.72;;;-3.13;100.00
52927;BME280;40783;49.710;8.842;2023-02-28T04:55:59;100014.53;;;-3.25;100.00
52927;BME280;40783;49.710;8.842;2023-02-28T04:58:25;100017.25;;;-3.28;100.00
52927;BME280;40783;49.710;8.842;2023-02-28T05:00:52;100021.63;;;-3.29;100.00
52927;BME280;40783;49.710;8.842;2023-02-28T05:03:20;100027.44;;;-3.19;100.00
52927;BME280;40783;49.710;8.842;2023-02-28T05:05:47;100031.03;;;-3.23;100.00
52927;BME280;40783;49.710;8.842;2023-02-28T05:08:15;100034.66;;;-3.27;100.00
52927;BME280;40783;49.710;8.842;2023-02-28T05:10:40;100022.28;;;-3.22;100.00
52927;BME280;40783;49.710;8.842;2023-02-28T05:13:08;100029.09;;;-3.18;100.00
52927;BME280;40783;49.710;8.842;2023-02-28T05:15:34;100022.84;;;-3.12;100.00
52927;BME280;40783;49.710;8.842;2023-02-28T05:17:59;100022.97;;;-3.17;100.00
52927;BME280;40783;49.710;8.842;2023-02-28T05:20:25;100035.22;;;-3.17;100.00
52927;BME280;40783;49.710;8.842;2023-02-28T05:22:52;100024.66;;;-3.14;100.00
52927;BME280;40783;49.710;8.842;2023-02-28T05:25:19;100027.72;;;-3.28;100.00
52927;BME280;40783;49.710;8.842;2023-02-28T05:27:45;100039.09;;;-3.29;100.00
52927;BME280;40783;49.710;8.842;2023-02-28T05:30:11;100031.25;;;-3.31;100.00
52927;BME280;40783;49.710;8.842;2023-02-28T05:32:37;100036.38;;;-3.26;100.00
52927;BME280;40783;49.710;8.842;2023-02-28T05:35:03;100036.47;;;-3.29;100.00
52927;BME280;40783;49.710;8.842;2023-02-28T05:37:31;100031.03;;;-3.23;100.00
52927;BME280;40783;49.710;8.842;2023-02-28T05:39:56;100033.03;;;-3.31;100.00
52927;BME280;40783;49.710;8.842;2023-02-28T05:42:21;100034.56;;;-3.24;100.00
52927;BME280;40783;49.710;8.842;2023-02-28T05:44:47;100041.50;;;-3.23;100.00
52927;BME280;40783;49.710;8.842;2023-02-28T05:47:12;100041.59;;;-3.26;100.00
52927;BME280;40783;49.710;8.842;2023-02-28T05:49:40;100050.44;;;-3.30;100.00
52927;BME280;40783;49.710;8.842;2023-02-28T05:52:05;100052.16;;;-3.29;100.00
52927;BME280;40783;49.710;8.842;2023-02-28T05:54:31;100050.16;;;-3.21;100.00
52927;BME280;40783;49.710;8.842;2023-02-28T05:56:56;100050.63;;;-3.36;100.00
52927;BME280;40783;49.710;8.842;2023-02-28T05:59:24;100054.06;;;-3.34;100.00
52927;BME280;40783;49.710;8.842;2023-02-28T06:01:49;100050.66;;;-3.38;100.00
52927;BME280;40783;49.710;8.842;2023-02-28T06:04:16;100050.25;;;-3.24;100.00
52927;BME280;40783;49.710;8.842;2023-02-28T06:06:45;100057.31;;;-3.26;100.00
52927;BME280;40783;49.710;8.842;2023-02-28T06:09:10;100050.34;;;-3.27;100.00
52927;BME280;40783;49.710;8.842;2023-02-28T06:11:35;100056.72;;;-3.36;100.00
52927;BME280;40783;49.710;8.842;2023-02-28T06:14:01;100054.34;;;-3.44;100.00
52927;BME280;40783;49.710;8.842;2023-02-28T06:16:29;100061.19;;;-3.39;100.00
52927;BME280;40783;49.710;8.842;2023-02-28T06:18:58;100061.00;;;-3.33;100.00
52927;BME280;40783;49.710;8.842;2023-02-28T06:21:23;100061.00;;;-3.33;100.00
52927;BME280;40783;49.710;8.842;2023-02-28T06:23:49;100059.91;;;-3.26;100.00
52927;BME280;40783;49.710;8.842;2023-02-28T06:26:15;100062.63;;;-3.29;100.00
52927;BME280;40783;49.710;8.842;2023-02-28T06:28:40;100055.78;;;-3.33;100.00
52927;BME280;40783;49.710;8.842;2023-02-28T06:31:10;100055.69;;;-3.30;100.00
52927;BME280;40783;49.710;8.842;2023-02-28T06:33:38;100066.06;;;-3.27;100.00
52927;BME280;40783;49.710;8.842;2023-02-28T06:36:09;100062.81;;;-3.35;100.00
52927;BME280;40783;49.710;8.842;2023-02-28T06:38:35;100062.81;;;-3.35;100.00
52927;BME280;40783;49.710;8.842;2023-02-28T06:41:01;100068.78;;;-3.32;100.00
52927;BME280;40783;49.710;8.842;2023-02-28T06:43:33;100070.22;;;-3.21;100.00
52927;BME280;40783;49.710;8.842;2023-02-28T06:46:03;100079.94;;;-3.25;100.00
52927;BME280;40783;49.710;8.842;2023-02-28T06:48:28;100069.56;;;-3.28;100.00
52927;BME280;40783;49.710;8.842;2023-02-28T06:51:09;100073.72;;;-3.21;100.00
52927;BME280;40783;49.710;8.842;2023-02-28T06:53:38;100077.91;;;-3.17;100.00
52927;BME280;40783;49.710;8.842;2023-02-28T06:56:12;100089.19;;;-3.15;100.00
52927;BME280;40783;49.710;8.842;2023-02-28T06:58:38;100083.16;;;-3.17;100.00
52927;BME280;40783;49.710;8.842;2023-02-28T07:01:07;100084.84;;;-3.16;100.00
52927;BME280;40783;49.710;8.842;2023-02-28T07:03:34;100090.63;;;-3.04;100.00
52927;BME280;40783;49.710;8.842;2023-02-28T07:06:02;100089.63;;;-3.00;100.00
52927;BME280;40783;49.710;8.842;2023-02-28T07:08:29;100076.69;;;-3.05;100.00
52927;BME280;40783;49.710;8.842;2023-02-28T07:10:55;100086.09;;;-2.99;100.00
52927;BME280;40783;49.710;8.842;2023-02-28T07:13:22;100089.22;;;-2.88;100.00
52927;BME280;40783;49.710;8.842;2023-02-28T07:18:19;100085.72;;;-2.87;100.00
52927;BME280;40783;49.710;8.842;2023-02-28T07:20:44;100085.22;;;-2.71;100.00
52927;BME280;40783;49.710;8.842;2023-02-28T07:23:15;100093.88;;;-2.69;100.00
52927;BME280;40783;49.710;8.842;2023-02-28T07:25:40;100088.41;;;-2.63;100.00
52927;BME280;40783;49.710;8.842;2023-02-28T07:28:05;100090.25;;;-2.65;100.00
52927;BME280;40783;49.710;8.842;2023-02-28T07:30:34;100089.09;;;-2.56;100.00
52927;BME280;40783;49.710;8.842;2023-02-28T07:33:03;100091.31;;;-2.45;100.00
52927;BME280;40783;49.710;8.842;2023-02-28T07:35:29;100092.72;;;-2.35;99.18
52927;BME280;40783;49.710;8.842;2023-02-28T07:37:58;100096.06;;;-2.30;98.77
52927;BME280;40783;49.710;8.842;2023-02-28T07:40:24;100092.63;;;-2.32;97.09
52927;BME280;40783;49.710;8.842;2023-02-28T07:42:50;100094.94;;;-2.22;97.40
52927;BME280;40783;49.710;8.842;2023-02-28T07:45:15;100092.22;;;-2.19;96.56
52927;BME280;40783;49.710;8.842;2023-02-28T07:47:41;100093.81;;;-2.15;96.73
52927;BME280;40783;49.710;8.842;2023-02-28T07:50:08;100089.19;;;-2.09;95.74
52927;BME280;40783;49.710;8.842;2023-02-28T07:52:36;100092.72;;;-2.10;95.39
52927;BME280;40783;49.710;8.842;2023-02-28T07:55:06;100100.16;;;-1.97;94.88
52927;BME280;40783;49.710;8.842;2023-02-28T07:57:32;100100.56;;;-1.84;94.23
52927;BME280;40783;49.710;8.842;2023-02-28T07:59:57;100099.44;;;-1.77;94.03
52927;BME280;40783;49.710;8.842;2023-02-28T08:02:23;100098.06;;;-1.87;93.04
52927;BME280;40783;49.710;8.842;2023-02-28T08:04:48;100104.03;;;-1.84;92.39
52927;BME280;40783;49.710;8.842;2023-02-28T08:07:16;100095.50;;;-1.89;93.29
52927;BME280;40783;49.710;8.842;2023-02-28T08:09:44;100103.69;;;-1.74;92.46
52927;BME280;40783;49.710;8.842;2023-02-28T08:12:10;100102.16;;;-1.56;91.87
52927;BME280;40783;49.710;8.842;2023-02-28T08:14:37;100098.00;;;-1.62;90.93
52927;BME280;40783;49.710;8.842;2023-02-28T08:17:03;100099.78;;;-1.62;89.73
52927;BME280;40783;49.710;8.842;2023-02-28T08:19:31;100100.91;;;-1.46;90.90
52927;BME280;40783;49.710;8.842;2023-02-28T08:21:57;100096.19;;;-1.36;89.43
52927;BME280;40783;49.710;8.842;2023-02-28T08:24:22;100101.34;;;-1.35;89.54
52927;BME280;40783;49.710;8.842;2023-02-28T08:26:48;100100.88;;;-1.22;89.40
52927;BME280;40783;49.710;8.842;2023-02-28T08:29:15;100093.44;;;-1.11;89.15
52927;BME280;40783;49.710;8.842;2023-02-28T08:31:43;100094.09;;;-1.06;87.06
52927;BME280;40783;49.710;8.842;2023-02-28T08:34:13;100093.06;;;-1.01;87.30
52927;BME280;40783;49.710;8.842;2023-02-28T08:36:42;100091.09;;;-0.96;86.71
52927;BME280;40783;49.710;8.842;2023-02-28T08:39:13;100096.13;;;-0.90;86.23
52927;BME280;40783;49.710;8.842;2023-02-28T08:41:38;100081.94;;;-0.86;85.36
52927;BME280;40783;49.710;8.842;2023-02-28T08:44:04;100090.63;;;-0.84;84.96
52927;BME280;40783;49.710;8.842;2023-02-28T08:46:29;100093.44;;;-0.88;83.82
52927;BME280;40783;49.710;8.842;2023-02-28T08:48:57;100093.78;;;-0.76;82.61
52927;BME280;40783;49.710;8.842;2023-02-28T08:51:29;100088.09;;;-0.65;82.56
52927;BME280;40783;49.710;8.842;2023-02-28T08:53:58;100088.28;;;-0.49;82.57
52927;BME280;40783;49.710;8.842;2023-02-28T08:56:27;100083.44;;;-0.37;78.96
52927;BME280;40783;49.710;8.842;2023-02-28T08:58:56;100089.56;;;-0.37;78.64
52927;BME280;40783;49.710;8.842;2023-02-28T09:01:26;100086.75;;;-0.32;78.31
52927;BME280;40783;49.710;8.842;2023-02-28T09:03:55;100085.47;;;-0.23;78.10
52927;BME280;40783;49.710;8.842;2023-02-28T09:06:23;100089.03;;;-0.24;76.48
52927;BME280;40783;49.710;8.842;2023-02-28T09:08:51;100090.72;;;-0.23;74.23
52927;BME280;40783;49.710;8.842;2023-02-28T09:11:17;100093.19;;;-0.19;73.88
52927;BME280;40783;49.710;8.842;2023-02-28T09:13:45;100071.63;;;-0.06;72.47
52927;BME280;40783;49.710;8.842;2023-02-28T09:16:14;100081.00;;;-0.01;73.27
52927;BME280;40783;49.710;8.842;2023-02-28T09:18:44;100078.94;;;0.06;72.94
52927;BME280;40783;49.710;8.842;2023-02-28T09:21:12;100080.75;;;0.25;72.74
52927;BME280;40783;49.710;8.842;2023-02-28T09:23:47;100078.78;;;0.30;72.17
52927;BME280;40783;49.710;8.842;2023-02-28T09:26:18;100080.06;;;0.21;70.79
52927;BME280;40783;49.710;8.842;2023-02-28T09:28:44;100091.28;;;0.25;70.95
52927;BME280;40783;49.710;8.842;2023-02-28T09:31:15;100084.31;;;0.24;70.34
52927;BME280;40783;49.710;8.842;2023-02-28T09:33:42;100083.00;;;0.13;69.44
52927;BME280;40783;49.710;8.842;2023-02-28T09:36:09;100091.22;;;0.26;70.14
52927;BME280;40783;49.710;8.842;2023-02-28T09:38:35;100085.75;;;0.31;68.90
52927;BME280;40783;49.710;8.842;2023-02-28T09:41:03;100082.88;;;0.36;69.02
52927;BME280;40783;49.710;8.842;2023-02-28T09:43:34;100092.84;;;0.29;68.43
52927;BME280;40783;49.710;8.842;2023-02-28T09:48:48;100086.75;;;0.48;67.80
52927;BME280;40783;49.710;8.842;2023-02-28T09:53:49;100090.31;;;0.47;67.88
52927;BME280;40783;49.710;8.842;2023-02-28T09:56:41;100083.50;;;0.42;67.32
52927;BME280;40783;49.710;8.842;2023-02-28T10:04:34;100084.59;;;0.37;67.20
52927;BME280;40783;49.710;8.842;2023-02-28T10:07:13;100079.63;;;0.31;67.77
52927;BME280;40783;49.710;8.842;2023-02-28T10:09:45;100087.81;;;0.43;66.95
52927;BME280;40783;49.710;8.842;2023-02-28T10:12:13;100092.44;;;0.38;66.98
52927;BME280;40783;49.710;8.842;2023-02-28T10:14:45;100093.00;;;0.45;66.98
52927;BME280;40783;49.710;8.842;2023-02-28T10:17:17;100083.63;;;0.39;66.49
52927;BME280;40783;49.710;8.842;2023-02-28T10:20:10;100084.81;;;0.32;67.16
52927;BME280;40783;49.710;8.842;2023-02-28T10:22:52;100084.31;;;0.24;67.19
52927;BME280;40783;49.710;8.842;2023-02-28T10:25:24;100079.63;;;0.31;67.76
52927;BME280;40783;49.710;8.842;2023-02-28T10:27:54;100091.00;;;0.31;67.21
52927;BME280;40783;49.710;8.842;2023-02-28T10:30:24;100092.16;;;0.25;67.24
52927;BME280;40783;49.710;8.842;2023-02-28T10:32:52;100087.88;;;0.23;67.35
52927;BME280;40783;49.710;8.842;2023-02-28T10:35:25;100086.66;;;0.30;67.54
52927;BME280;40783;49.710;8.842;2023-02-28T10:37:57;100089.94;;;0.35;67.52
52927;BME280;40783;49.710;8.842;2023-02-28T10:45:39;100080.34;;;0.34;66.75
52927;BME280;40783;49.710;8.842;2023-02-28T10:55:58;100093.88;;;0.46;67.58
52927;BME280;40783;49.710;8.842;2023-02-28T10:58:30;100089.09;;;0.54;67.93
52927;BME280;40783;49.710;8.842;2023-02-28T11:00:59;100082.06;;;0.54;67.38
52927;BME280;40783;49.710;8.842;2023-02-28T11:03:29;100082.06;;;0.54;66.64
52927;BME280;40783;49.710;8.842;2023-02-28T11:05:58;100075.34;;;0.66;67.18
52927;BME280;40783;49.710;8.842;2023-02-28T11:08:24;100078.91;;;0.65;66.99
52927;BME280;40783;49.710;8.842;2023-02-28T11:10:58;100078.06;;;0.84;67.21
52927;BME280;40783;49.710;8.842;2023-02-28T11:13:28;100076.91;;;0.89;67.60
52927;BME280;40783;49.710;8.842;2023-02-28T11:15:59;100076.06;;;0.89;65.78
52927;BME280;40783;49.710;8.842;2023-02-28T11:18:50;100065.66;;;0.86;66.57
52927;BME280;40783;49.710;8.842;2023-02-28T11:23:45;100064.34;;;0.77;66.74
52927;BME280;40783;49.710;8.842;2023-02-28T11:26:10;100077.31;;;0.80;66.15
52927;BME280;40783;49.710;8.842;2023-02-28T11:28:39;100066.31;;;0.91;66.61
52927;BME280;40783;49.710;8.842;2023-02-28T11:33:54;100077.13;;;1.22;65.22
52927;BME280;40783;49.710;8.842;2023-02-28T11:36:31;100072.94;;;1.35;65.25
52927;BME280;40783;49.710;8.842;2023-02-28T11:39:07;100067.06;;;1.47;65.46
52927;BME280;40783;49.710;8.842;2023-02-28T11:41:46;100073.19;;;1.48;64.93
52927;BME280;40783;49.710;8.842;2023-02-28T11:47:15;100066.69;;;1.38;62.60
52927;BME280;40783;49.710;8.842;2023-02-28T11:50:20;100066.06;;;1.50;62.82
52927;BME280;40783;49.710;8.842;2023-02-28T11:52:55;100067.47;;;1.57;63.07
52927;BME280;40783;49.710;8.842;2023-02-28T12:03:35;100057.22;;;1.51;62.30
52927;BME280;40783;49.710;8.842;2023-02-28T12:06:29;100058.69;;;1.74;62.53
52927;BME280;40783;49.710;8.842;2023-02-28T12:14:31;100054.25;;;1.75;62.64
52927;BME280;40783;49.710;8.842;2023-02-28T12:22:54;100066.44;;;1.77;61.33
52927;BME280;40783;49.710;8.842;2023-02-28T12:28:42;100056.31;;;1.86;61.56
52927;BME280;40783;49.710;8.842;2023-02-28T12:31:17;100064.31;;;1.84;61.55
52927;BME280;40783;49.710;8.842;2023-02-28T12:33:47;100046.94;;;1.98;62.79
52927;BME280;40783;49.710;8.842;2023-02-28T12:36:20;100045.75;;;1.86;61.09
52927;BME280;40783;49.710;8.842;2023-02-28T12:39:10;100030.13;;;1.83;61.19
52927;BME280;40783;49.710;8.842;2023-02-28T12:41:58;100041.75;;;2.12;62.22
52927;BME280;40783;49.710;8.842;2023-02-28T12:44:32;100039.56;;;2.20;60.98
52927;BME280;40783;49.710;8.842;2023-02-28T12:47:04;100022.34;;;2.13;59.69
52927;BME280;40783;49.710;8.842;2023-02-28T12:49:34;100024.56;;;2.05;60.73
52927;BME280;40783;49.710;8.842;2023-02-28T12:52:02;100022.19;;;2.16;60.07
52927;BME280;40783;49.710;8.842;2023-02-28T12:54:40;100025.25;;;2.08;60.07
52927;BME280;40783;49.710;8.842;2023-02-28T12:59:55;100015.97;;;2.17;59.61
52927;BME280;40783;49.710;8.842;2023-02-28T13:10:15;100025.75;;;2.15;60.01
52927;BME280;40783;49.710;8.842;2023-02-28T13:12:50;100032.84;;;2.31;60.07
52927;BME280;40783;49.710;8.842;2023-02-28T13:15:24;100028.22;;;2.18;60.25
52927;BME280;40783;49.710;8.842;2023-02-28T13:17:52;100025.25;;;2.25;60.86
52927;BME280;40783;49.710;8.842;2023-02-28T13:20:24;100037.50;;;2.26;59.57
52927;BME280;40783;49.710;8.842;2023-02-28T13:22:54;100036.59;;;2.27;60.36
52927;BME280;40783;49.710;8.842;2023-02-28T13:28:11;100035.16;;;2.37;59.42
52927;BME280;40783;49.710;8.842;2023-02-28T13:36:06;100034.72;;;2.29;60.66
52927;BME280;40783;49.710;8.842;2023-02-28T13:38:37;100029.53;;;2.43;61.12
52927;BME280;40783;49.710;8.842;2023-02-28T13:46:28;100028.00;;;2.39;60.82
52927;BME280;40783;49.710;8.842;2023-02-28T13:48:53;100029.72;;;2.40;61.25
52927;BME280;40783;49.710;8.842;2023-02-28T13:51:35;100029.19;;;2.49;60.17
52927;BME280;40783;49.710;8.842;2023-02-28T13:54:31;100032.44;;;2.55;60.56
52927;BME280;40783;49.710;8.842;2023-02-28T14:02:25;100019.97;;;2.41;60.28
52927;BME280;40783;49.710;8.842;2023-02-28T14:04:59;100025.53;;;2.36;60.41
52927;BME280;40783;49.710;8.842;2023-02-28T14:07:38;100015.75;;;2.38;59.76
52927;BME280;40783;49.710;8.842;2023-02-28T14:10:07;100022.06;;;2.51;60.20
52927;BME280;40783;49.710;8.842;2023-02-28T14:12:55;100021.00;;;2.54;60.19
52927;BME280;40783;49.710;8.842;2023-02-28T14:20:55;100008.91;;;2.50;59.66
52927;BME280;40783;49.710;8.842;2023-02-28T14:26:02;100020.00;;;2.57;60.20
52927;BME280;40783;49.710;8.842;2023-02-28T14:31:12;100004.34;;;2.54;59.94
52927;BME280;40783;49.710;8.842;2023-02-28T14:33:53;100012.09;;;2.57;59.53
52927;BME280;40783;49.710;8.842;2023-02-28T14:36:32;100010.28;;;2.57;59.97
52927;BME280;40783;49.710;8.842;2023-02-28T14:39:01;100006.63;;;2.60;59.56
52927;BME280;40783;49.710;8.842;2023-02-28T14:41:32;100008.72;;;2.69;60.82
52927;BME280;40783;49.710;8.842;2023-02-28T14:44:01;100012.59;;;2.63;60.02
52927;BME280;40783;49.710;8.842;2023-02-28T14:46:36;100014.38;;;2.63;60.59
52927;BME280;40783;49.710;8.842;2023-02-28T14:49:04;100012.69;;;2.62;60.50
52927;BME280;40783;49.710;8.842;2023-02-28T14:51:33;100008.06;;;2.65;61.02
52927;BME280;40783;49.710;8.842;2023-02-28T14:54:00;100003.06;;;2.61;60.95
52927;BME280;40783;49.710;8.842;2023-02-28T14:56:32;99998.16;;;2.69;60.60
52927;BME280;40783;49.710;8.842;2023-02-28T14:59:04;100000.25;;;2.64;60.96
52927;BME280;40783;49.710;8.842;2023-02-28T15:01:30;100000.41;;;2.61;61.45
52927;BME280;40783;49.710;8.842;2023-02-28T15:04:06;99994.97;;;2.64;61.63
52927;BME280;40783;49.710;8.842;2023-02-28T15:06:34;99998.72;;;2.60;60.31
52927;BME280;40783;49.710;8.842;2023-02-28T15:09:13;99995.13;;;2.61;60.46
52927;BME280;40783;49.710;8.842;2023-02-28T15:11:39;99987.03;;;2.64;59.96
52927;BME280;40783;49.710;8.842;2023-02-28T15:14:12;99981.66;;;2.65;59.98
52927;BME280;40783;49.710;8.842;2023-02-28T15:16:41;99984.03;;;2.70;60.27